createdAt,value
2023-05-24T00:00:00.630Z,100051.06
2023-05-24T00:02:28.345Z,100032.72
2023-05-24T00:04:55.674Z,100044.94
2023-05-24T00:07:22.837Z,100052.72
2023-05-24T00:09:49.932Z,100056.22
2023-05-24T00:12:17.042Z,100057.91
2023-05-24T00:14:44.139Z,100057.03
2023-05-24T00:17:12.948Z,100060.50
2023-05-24T00:19:40.340Z,100058.75
2023-05-24T00:22:07.518Z,100042.22
2023-05-24T00:24:34.710Z,100043.06
2023-05-24T00:27:01.935Z,100057.03
2023-05-24T00:29:31.476Z,100045.69
2023-05-24T00:32:00.830Z,100033.53
2023-05-24T00:34:28.143Z,100036.13
2023-05-24T00:36:55.176Z,100032.63
2023-05-24T00:39:22.253Z,100034.38
2023-05-24T00:41:49.557Z,100027.47
2023-05-24T00:44:16.626Z,100026.63
2023-05-24T00:46:44.353Z,100027.47
2023-05-24T00:49:11.730Z,100018.81
2023-05-24T00:51:38.962Z,100014.50
2023-05-24T00:54:07.034Z,100028.44
2023-05-24T00:56:34.428Z,100027.59
2023-05-24T00:59:03.618Z,100027.63
2023-05-24T01:01:34.911Z,100027.66
2023-05-24T01:04:02.777Z,100005.91
2023-05-24T01:06:36.802Z,100021.59
2023-05-24T01:09:35.214Z,100022.47
2023-05-24T01:12:15.769Z,100014.69
2023-05-24T01:15:01.776Z,100012.97
2023-05-24T01:17:42.957Z,100019.97
2023-05-24T01:20:13.675Z,100004.31
2023-05-24T01:22:59.414Z,99997.31
2023-05-24T01:25:59.652Z,99995.53
2023-05-24T01:28:28.385Z,99995.59
2023-05-24T01:30:56.270Z,100004.28
2023-05-24T01:33:25.858Z,100005.13
2023-05-24T01:35:53.018Z,99999.88
2023-05-24T01:38:20.074Z,100002.56
2023-05-24T01:40:50.774Z,99997.28
2023-05-24T01:43:35.213Z,100002.50
2023-05-24T01:46:07.016Z,100012.13
2023-05-24T01:49:02.365Z,100001.66
2023-05-24T01:51:39.013Z,100005.09
2023-05-24T01:54:07.081Z,100017.25
2023-05-24T01:56:35.972Z,100008.59
2023-05-24T01:59:03.751Z,100017.34
2023-05-24T02:01:32.032Z,100002.47
2023-05-24T02:03:59.729Z,100004.16
2023-05-24T02:06:26.918Z,99990.22
2023-05-24T02:08:53.976Z,99996.28
2023-05-24T02:11:23.104Z,99996.28
2023-05-24T02:13:50.225Z,99998.94
2023-05-24T02:16:18.346Z,99972.84
2023-05-24T02:18:46.946Z,99997.16
2023-05-24T02:21:14.202Z,99998.88
2023-05-24T02:23:41.293Z,99991.00
2023-05-24T02:26:11.639Z,99991.88
2023-05-24T02:28:38.830Z,99974.50
2023-05-24T02:31:06.449Z,99995.38
2023-05-24T02:33:35.419Z,99957.94
2023-05-24T02:36:02.625Z,99956.19
2023-05-24T02:38:29.710Z,99977.91
2023-05-24T02:40:56.730Z,99991.81
2023-05-24T02:43:23.954Z,99995.28
2023-05-24T02:45:51.077Z,99990.03
2023-05-24T02:48:18.242Z,99983.03
2023-05-24T02:50:45.490Z,99983.03
2023-05-24T02:53:12.794Z,99980.38
2023-05-24T02:55:40.098Z,99980.38
2023-05-24T02:58:08.473Z,99983.00
2023-05-24T03:00:36.249Z,99983.00
2023-05-24T03:03:03.538Z,99969.09
2023-05-24T03:05:30.840Z,99955.13
2023-05-24T03:07:58.593Z,99968.19
2023-05-24T03:10:25.882Z,99982.22
2023-05-24T03:12:52.921Z,99978.75
2023-05-24T03:15:20.220Z,99964.03
2023-05-24T03:17:47.679Z,99977.91
2023-05-24T03:20:16.062Z,99970.09
2023-05-24T03:22:43.563Z,99955.31
2023-05-24T03:25:10.691Z,99964.00
2023-05-24T03:27:38.667Z,99962.22
2023-05-24T03:30:06.870Z,99950.91
2023-05-24T03:32:41.154Z,99970.03
2023-05-24T03:35:12.176Z,99964.81
2023-05-24T03:37:39.532Z,99971.72
2023-05-24T03:40:08.996Z,99962.06
2023-05-24T03:43:05.672Z,99973.34
2023-05-24T03:45:53.679Z,99975.94
2023-05-24T03:48:21.159Z,99956.66
2023-05-24T03:50:50.292Z,99960.97
2023-05-24T03:53:19.221Z,99954.06
2023-05-24T03:55:47.673Z,99962.78
2023-05-24T03:58:14.700Z,99926.97
2023-05-24T04:00:41.964Z,99933.03
2023-05-24T04:03:09.492Z,99950.44
2023-05-24T04:05:36.562Z,99925.06
2023-05-24T04:08:05.095Z,99936.34
2023-05-24T04:10:32.274Z,99939.66
2023-05-24T04:13:00.863Z,99937.84
2023-05-24T04:15:27.995Z,99940.31
2023-05-24T04:17:55.771Z,99936.75
2023-05-24T04:20:27.803Z,99946.22
2023-05-24T04:22:56.365Z,99936.50
2023-05-24T04:25:23.834Z,99936.47
2023-05-24T04:27:51.040Z,99940.81
2023-05-24T04:30:18.439Z,99936.41
2023-05-24T04:32:45.679Z,99933.69
2023-05-24T04:35:13.559Z,99924.88
2023-05-24T04:37:41.066Z,99933.44
2023-05-24T04:40:08.850Z,99937.72
2023-05-24T04:42:36.138Z,99939.25
2023-05-24T04:45:03.562Z,99921.69
2023-05-24T04:47:33.930Z,99937.19
2023-05-24T04:50:01.107Z,99935.28
2023-05-24T04:52:28.315Z,99932.44
2023-05-24T04:54:55.757Z,99934.03
2023-05-24T04:57:22.987Z,99938.38
2023-05-24T04:59:50.172Z,99934.00
2023-05-24T05:02:17.661Z,99944.44
2023-05-24T05:04:44.840Z,99900.16
2023-05-24T05:07:11.898Z,99942.63
2023-05-24T05:09:39.044Z,99947.78
2023-05-24T05:12:07.314Z,99948.56
2023-05-24T05:14:34.518Z,99962.38
2023-05-24T05:17:01.739Z,99955.94
2023-05-24T05:19:28.965Z,99961.06
2023-05-24T05:21:56.119Z,99958.50
2023-05-24T05:24:23.353Z,99956.66
2023-05-24T05:26:50.915Z,99952.28
2023-05-24T05:29:17.990Z,99952.25
2023-05-24T05:31:45.242Z,99955.75
2023-05-24T05:34:12.402Z,99932.16
2023-05-24T05:36:41.045Z,99957.53
2023-05-24T05:39:11.992Z,99949.16
2023-05-24T05:41:39.880Z,99922.34
2023-05-24T05:44:06.955Z,99951.94
2023-05-24T05:46:34.064Z,99963.34
2023-05-24T05:49:01.236Z,99935.63
2023-05-24T05:51:28.383Z,99948.63
2023-05-24T05:53:55.614Z,99960.72
2023-05-24T05:56:22.683Z,99951.03
2023-05-24T05:58:49.936Z,99952.69
2023-05-24T06:01:17.139Z,99909.28
2023-05-24T06:03:45.208Z,99956.94
2023-05-24T06:06:12.612Z,99954.38
2023-05-24T06:08:41.033Z,99951.00
2023-05-24T06:11:08.176Z,99945.78
2023-05-24T06:13:35.206Z,99949.31
2023-05-24T06:16:02.341Z,99955.41
2023-05-24T06:18:30.688Z,99940.69
2023-05-24T06:20:57.806Z,99952.03
2023-05-24T06:23:24.941Z,99951.16
2023-05-24T06:25:52.004Z,99938.00
2023-05-24T06:28:19.132Z,99939.75
2023-05-24T06:30:47.751Z,99938.66
2023-05-24T06:33:14.961Z,99926.28
2023-05-24T06:35:42.018Z,99943.31
2023-05-24T06:38:09.160Z,99943.00
2023-05-24T06:40:36.271Z,99940.91
2023-05-24T06:43:04.352Z,99937.94
2023-05-24T06:45:32.304Z,99928.25
2023-05-24T06:47:59.600Z,99943.66
2023-05-24T06:50:26.694Z,99932.16
2023-05-24T06:52:53.864Z,99938.22
2023-05-24T06:55:21.173Z,99922.09
2023-05-24T06:57:48.226Z,99923.16
2023-05-24T07:00:15.746Z,99929.16
2023-05-24T07:02:43.033Z,99939.72
2023-05-24T07:05:12.861Z,99938.91
2023-05-24T07:07:43.991Z,99924.97
2023-05-24T07:10:11.880Z,99933.81
2023-05-24T07:12:39.049Z,99935.41
2023-05-24T07:15:07.358Z,99944.13
2023-05-24T07:17:34.828Z,99923.22
2023-05-24T07:20:02.570Z,99943.41
2023-05-24T07:22:32.718Z,99945.94
2023-05-24T07:24:59.794Z,99943.22
2023-05-24T07:27:26.863Z,99944.03
2023-05-24T07:29:54.334Z,99924.81
2023-05-24T07:32:21.747Z,99942.22
2023-05-24T07:34:48.932Z,99940.44
2023-05-24T07:37:16.832Z,99943.88
2023-05-24T07:39:43.943Z,99950.78
2023-05-24T07:42:11.029Z,99952.47
2023-05-24T07:44:38.080Z,99950.69
2023-05-24T07:47:05.314Z,99953.25
2023-05-24T07:49:32.669Z,99947.97
2023-05-24T07:52:00.374Z,99937.78
2023-05-24T07:54:27.426Z,99948.94
2023-05-24T07:56:54.518Z,99899.44
2023-05-24T07:59:23.048Z,99938.34
2023-05-24T08:01:50.708Z,99961.75
2023-05-24T08:04:18.154Z,99958.97
2023-05-24T08:06:46.893Z,99959.63
2023-05-24T08:09:14.162Z,99960.38
2023-05-24T08:11:41.958Z,99957.59
2023-05-24T08:14:09.092Z,99954.03
2023-05-24T08:16:36.255Z,99960.13
2023-05-24T08:19:03.405Z,99953.84
2023-05-24T08:21:30.687Z,99946.84
2023-05-24T08:23:57.861Z,99941.66
2023-05-24T08:26:24.944Z,99956.38
2023-05-24T08:28:52.496Z,99936.94
2023-05-24T08:31:19.564Z,99942.03
2023-05-24T08:33:50.593Z,99895.88
2023-05-24T08:36:18.518Z,99896.53
2023-05-24T08:38:45.585Z,99939.84
2023-05-24T08:41:12.657Z,99944.22
2023-05-24T08:43:39.800Z,99930.28
2023-05-24T08:46:08.001Z,99939.03
2023-05-24T08:48:45.330Z,99940.59
2023-05-24T08:51:16.950Z,99944.25
2023-05-24T08:53:48.968Z,99938.16
2023-05-24T08:56:18.062Z,99936.97
2023-05-24T08:58:47.308Z,99942.84
2023-05-24T09:01:17.016Z,99942.97
2023-05-24T09:03:46.757Z,99929.75
2023-05-24T09:06:16.968Z,99954.09
2023-05-24T09:08:45.398Z,99932.22
2023-05-24T09:11:14.797Z,99945.16
2023-05-24T09:13:44.807Z,99927.84
2023-05-24T09:16:12.526Z,99927.69
2023-05-24T09:18:42.816Z,99932.06
2023-05-24T09:21:12.027Z,99916.97
2023-05-24T09:23:40.948Z,99930.63
2023-05-24T09:26:09.835Z,99907.09
2023-05-24T09:28:38.072Z,99930.34
2023-05-24T09:31:07.920Z,99940.41
2023-05-24T09:33:35.948Z,99937.94
2023-05-24T09:36:07.322Z,99945.69
2023-05-24T09:38:36.455Z,99955.28
2023-05-24T09:41:08.864Z,99933.47
2023-05-24T09:43:48.258Z,99936.09
2023-05-24T09:46:22.346Z,99942.19
2023-05-24T09:49:04.127Z,99933.91
2023-05-24T09:51:31.207Z,99945.88
2023-05-24T09:54:01.855Z,99916.19
2023-05-24T09:56:30.272Z,99943.41
2023-05-24T09:58:58.181Z,99926.63
2023-05-24T10:01:26.986Z,99939.66
2023-05-24T10:03:59.419Z,99942.31
2023-05-24T10:06:26.869Z,99946.38
2023-05-24T10:08:57.190Z,99937.44
2023-05-24T10:11:24.494Z,99930.41
2023-05-24T10:13:51.833Z,99949.56
2023-05-24T10:16:18.980Z,99940.13
2023-05-24T10:18:46.508Z,99947.91
2023-05-24T10:21:14.133Z,99939.09
2023-05-24T10:23:44.679Z,99922.47
2023-05-24T10:26:12.805Z,99948.97
2023-05-24T10:28:49.009Z,99954.84
2023-05-24T10:31:22.942Z,99934.69
2023-05-24T10:33:52.230Z,99940.09
2023-05-24T10:36:20.052Z,99961.56
2023-05-24T10:38:47.528Z,99948.91
2023-05-24T10:41:14.614Z,99960.03
2023-05-24T10:43:56.782Z,99945.19
2023-05-24T10:46:33.498Z,99946.00
2023-05-24T10:49:01.517Z,99961.63
2023-05-24T10:51:39.594Z,99957.38
2023-05-24T10:54:13.979Z,99959.16
2023-05-24T10:56:43.290Z,99954.13
2023-05-24T10:59:23.235Z,99958.44
2023-05-24T11:02:01.073Z,99961.06
2023-05-24T11:04:33.214Z,99959.34
2023-05-24T11:07:11.684Z,99965.34
2023-05-24T11:09:46.818Z,99909.16
2023-05-24T11:12:19.110Z,99969.75
2023-05-24T11:14:52.432Z,99964.66
2023-05-24T11:17:22.878Z,99976.91
2023-05-24T11:19:55.161Z,99968.09
2023-05-24T11:22:25.673Z,99963.13
2023-05-24T11:24:53.521Z,99971.06
2023-05-24T11:27:21.108Z,99952.81
2023-05-24T11:29:49.016Z,99972.84
2023-05-24T11:32:19.032Z,99961.69
2023-05-24T11:34:49.990Z,99943.72
2023-05-24T11:37:18.838Z,99966.19
2023-05-24T11:39:52.847Z,99963.94
2023-05-24T11:42:22.328Z,99972.69
2023-05-24T11:44:50.232Z,99980.59
2023-05-24T11:47:20.506Z,99988.53
2023-05-24T11:49:50.741Z,99982.53
2023-05-24T11:52:17.782Z,99987.66
2023-05-24T11:54:45.058Z,99985.06
2023-05-24T11:57:12.956Z,99976.50
2023-05-24T11:59:41.992Z,99991.34
2023-05-24T12:02:09.287Z,99969.63
2023-05-24T12:04:36.552Z,99984.34
2023-05-24T12:07:03.869Z,99985.31
2023-05-24T12:09:31.087Z,99972.22
2023-05-24T12:11:58.817Z,99985.47
2023-05-24T12:14:31.414Z,99982.13
2023-05-24T12:16:59.839Z,99971.59
2023-05-24T12:19:34.685Z,99980.34
2023-05-24T12:22:07.510Z,99986.56
2023-05-24T12:24:35.888Z,99981.44
2023-05-24T12:27:08.894Z,99978.81
2023-05-24T12:29:38.936Z,99956.41
2023-05-24T12:32:12.477Z,99975.59
2023-05-24T12:34:44.521Z,99960.84
2023-05-24T12:37:13.655Z,99972.16
2023-05-24T12:39:43.795Z,99968.44
2023-05-24T12:42:16.227Z,99952.72
2023-05-24T12:44:45.147Z,99955.31
2023-05-24T12:47:12.760Z,99963.06
2023-05-24T12:49:39.822Z,99944.84
2023-05-24T12:52:07.149Z,99956.78
2023-05-24T12:54:34.318Z,99955.00
2023-05-24T12:57:03.383Z,99961.13
2023-05-24T12:59:31.201Z,99943.63
2023-05-24T13:01:58.340Z,99953.88
2023-05-24T13:04:30.708Z,99954.00
2023-05-24T13:06:57.998Z,99954.94
2023-05-24T13:09:26.023Z,99946.19
2023-05-24T13:11:54.350Z,99961.75
2023-05-24T13:14:22.131Z,99960.09
2023-05-24T13:16:49.779Z,99969.78
2023-05-24T13:19:17.523Z,99967.09
2023-05-24T13:21:45.675Z,99975.03
2023-05-24T13:24:16.200Z,99978.63
2023-05-24T13:26:45.176Z,99966.44
2023-05-24T13:29:30.544Z,99970.00
2023-05-24T13:32:00.065Z,99978.63
2023-05-24T13:34:27.417Z,99960.41
2023-05-24T13:36:55.064Z,99958.69
2023-05-24T13:39:22.672Z,99949.81
2023-05-24T13:41:50.249Z,99966.38
2023-05-24T13:44:17.473Z,99970.59
2023-05-24T13:46:45.033Z,99955.84
2023-05-24T13:49:13.008Z,99973.94
2023-05-24T13:51:40.550Z,99970.34
2023-05-24T13:54:08.440Z,99971.22
2023-05-24T13:56:36.789Z,99973.81
2023-05-24T13:59:04.908Z,99968.56
2023-05-24T14:01:33.715Z,99936.69
2023-05-24T14:04:02.532Z,99976.41
2023-05-24T14:06:29.954Z,99978.13
2023-05-24T14:08:57.310Z,99970.25
2023-05-24T14:11:25.625Z,99978.13
2023-05-24T14:16:24.417Z,99965.13
2023-05-24T14:18:51.915Z,99978.09
2023-05-24T14:21:19.808Z,99969.50
2023-05-24T14:23:46.965Z,99978.13
2023-05-24T14:26:14.486Z,99973.81
2023-05-24T14:28:41.596Z,99979.97
2023-05-24T14:31:08.827Z,99975.53
2023-05-24T14:33:36.085Z,99961.63
2023-05-24T14:36:03.230Z,99976.56
2023-05-24T14:38:30.497Z,99974.78
2023-05-24T14:40:58.843Z,99974.78
2023-05-24T14:43:26.359Z,99961.81
2023-05-24T14:45:53.830Z,99968.78
2023-05-24T14:48:20.990Z,99969.75
2023-05-24T14:50:48.100Z,99975.94
2023-05-24T14:53:15.183Z,99962.75
2023-05-24T14:55:43.896Z,99976.81
2023-05-24T14:58:12.331Z,99965.50
2023-05-24T15:00:41.128Z,99956.94
2023-05-24T15:03:09.112Z,99975.03
2023-05-24T15:05:36.808Z,99964.59
2023-05-24T15:08:05.703Z,99974.06
2023-05-24T15:10:33.465Z,99977.56
2023-05-24T15:13:01.653Z,99962.75
2023-05-24T15:15:29.312Z,99922.84
2023-05-24T15:17:59.659Z,99972.38
2023-05-24T15:20:27.200Z,99972.34
2023-05-24T15:22:54.281Z,99952.47
2023-05-24T15:25:21.580Z,99974.19
2023-05-24T15:27:49.280Z,99972.72
2023-05-24T15:30:17.628Z,99975.28
2023-05-24T15:32:46.588Z,99977.09
2023-05-24T15:35:14.397Z,99975.38
2023-05-24T15:37:42.960Z,99979.00
2023-05-24T15:40:11.206Z,99987.78
2023-05-24T15:42:38.296Z,99968.78
2023-05-24T15:45:05.850Z,99980.13
2023-05-24T15:47:38.180Z,99989.81
2023-05-24T15:50:07.874Z,99990.66
2023-05-24T15:52:35.661Z,99989.81
2023-05-24T15:55:02.767Z,100004.03
2023-05-24T15:57:31.541Z,99992.63
2023-05-24T15:59:58.712Z,99988.25
2023-05-24T16:02:25.995Z,99992.72
2023-05-24T16:04:53.325Z,99993.63
2023-05-24T16:07:20.519Z,99973.56
2023-05-24T16:09:50.231Z,99992.00
2023-05-24T16:12:17.969Z,99985.06
2023-05-24T16:14:45.275Z,99991.28
2023-05-24T16:17:13.543Z,99976.63
2023-05-24T16:19:41.367Z,99990.53
2023-05-24T16:22:08.707Z,99988.84
2023-05-24T16:24:35.758Z,99985.41
2023-05-24T16:27:02.908Z,99973.38
2023-05-24T16:29:30.414Z,99981.16
2023-05-24T16:31:57.713Z,99988.22
2023-05-24T16:34:25.214Z,99984.81
2023-05-24T16:36:52.434Z,99984.88
2023-05-24T16:39:19.543Z,99974.41
2023-05-24T16:41:47.132Z,99985.75
2023-05-24T16:44:18.013Z,99958.91
2023-05-24T16:46:46.256Z,99983.28
2023-05-24T16:49:13.706Z,99986.06
2023-05-24T16:51:40.941Z,99989.66
2023-05-24T16:54:09.216Z,99981.00
2023-05-24T16:56:37.984Z,99977.63
2023-05-24T16:59:05.820Z,99991.66
2023-05-24T17:01:33.220Z,100002.38
2023-05-24T17:04:00.729Z,100003.28
2023-05-24T17:06:28.043Z,100014.78
2023-05-24T17:08:55.157Z,99994.84
2023-05-24T17:11:23.278Z,100007.94
2023-05-24T17:13:51.627Z,100004.53
2023-05-24T17:16:19.002Z,100017.75
2023-05-24T17:18:46.409Z,100011.66
2023-05-24T17:21:13.885Z,100024.06
2023-05-24T17:23:40.936Z,100022.31
2023-05-24T17:26:08.302Z,100022.41
2023-05-24T17:28:36.528Z,100025.00
2023-05-24T17:31:04.237Z,100004.25
2023-05-24T17:33:32.404Z,100029.53
2023-05-24T17:36:04.426Z,100034.81
2023-05-24T17:38:37.623Z,100034.00
2023-05-24T17:41:07.855Z,100015.81
2023-05-24T17:43:36.867Z,100039.41
2023-05-24T17:46:06.723Z,100057.09
2023-05-24T17:48:36.898Z,100037.22
2023-05-24T17:51:08.662Z,100039.13
2023-05-24T17:53:38.189Z,100054.81
2023-05-24T17:56:06.628Z,100062.81
2023-05-24T17:58:36.895Z,100058.47
2023-05-24T18:01:07.248Z,100064.72
2023-05-24T18:03:37.309Z,100070.94
2023-05-24T18:06:07.013Z,100065.72
2023-05-24T18:08:37.320Z,100064.13
2023-05-24T18:11:08.653Z,100079.84
2023-05-24T18:13:37.739Z,100068.53
2023-05-24T18:16:06.055Z,100064.19
2023-05-24T18:18:33.261Z,100067.66
2023-05-24T18:21:00.422Z,100062.56
2023-05-24T18:23:27.559Z,100068.63
2023-05-24T18:26:00.600Z,100078.25
2023-05-24T18:28:30.435Z,100071.25
2023-05-24T18:30:57.550Z,100077.41
2023-05-24T18:33:24.790Z,100078.38
2023-05-24T18:35:52.040Z,100006.41
2023-05-24T18:38:19.100Z,100051.53
2023-05-24T18:40:46.259Z,100062.03
2023-05-24T18:43:13.357Z,100061.22
2023-05-24T18:45:40.600Z,100070.00
2023-05-24T18:48:08.183Z,100076.06
2023-05-24T18:50:35.335Z,100053.56
2023-05-24T18:53:02.422Z,100071.72
2023-05-24T18:55:29.523Z,100058.75
2023-05-24T18:57:56.688Z,100067.41
2023-05-24T19:00:24.631Z,100055.25
2023-05-24T19:02:52.174Z,100046.56
2023-05-24T19:05:20.114Z,100061.44
2023-05-24T19:07:47.292Z,100073.69
2023-05-24T19:10:14.433Z,100065.81
2023-05-24T19:12:41.599Z,100064.94
2023-05-24T19:15:09.211Z,100060.66
2023-05-24T19:17:36.344Z,100068.59
2023-05-24T19:20:04.126Z,100058.25
2023-05-24T19:22:33.991Z,100060.06
2023-05-24T19:25:01.575Z,100060.09
2023-05-24T19:27:31.709Z,100057.50
2023-05-24T19:30:00.261Z,100058.47
2023-05-24T19:32:28.028Z,100039.47
2023-05-24T19:34:55.306Z,100054.34
2023-05-24T19:37:22.704Z,100055.19
2023-05-24T19:39:51.498Z,99930.16
2023-05-24T19:42:18.823Z,100050.09
2023-05-24T19:44:45.997Z,100043.16
2023-05-24T19:47:13.216Z,100052.72
2023-05-24T19:49:40.369Z,100038.84
2023-05-24T19:52:07.574Z,100044.19
2023-05-24T19:54:34.716Z,100032.09
2023-05-24T19:57:02.610Z,100039.94
2023-05-24T19:59:29.860Z,100040.97
2023-05-24T20:01:56.958Z,100048.16
2023-05-24T20:04:24.214Z,100046.47
2023-05-24T20:06:53.468Z,100036.97
2023-05-24T20:09:20.698Z,100044.88
2023-05-24T20:11:47.861Z,100062.22
2023-05-24T20:14:15.095Z,100065.03
2023-05-24T20:16:42.266Z,100067.75
2023-05-24T20:19:10.650Z,100065.25
2023-05-24T20:21:37.955Z,100079.28
2023-05-24T20:24:05.540Z,100048.78
2023-05-24T20:26:33.550Z,100081.97
2023-05-24T20:29:01.111Z,100077.69
2023-05-24T20:31:28.300Z,100069.03
2023-05-24T20:33:55.443Z,100070.81
2023-05-24T20:36:22.524Z,100073.50
2023-05-24T20:38:50.362Z,100076.16
2023-05-24T20:41:18.127Z,100056.97
2023-05-24T20:43:45.252Z,100063.91
2023-05-24T20:46:14.075Z,100054.50
2023-05-24T20:48:42.254Z,100071.88
2023-05-24T20:51:09.974Z,100066.72
2023-05-24T20:53:37.804Z,100076.31
2023-05-24T20:56:04.954Z,100081.63
2023-05-24T20:58:32.114Z,100085.13
2023-05-24T21:00:59.336Z,100074.63
2023-05-24T21:03:26.536Z,100085.09
2023-05-24T21:05:53.693Z,100085.13
2023-05-24T21:08:20.935Z,100072.91
2023-05-24T21:10:48.042Z,100082.50
2023-05-24T21:13:15.287Z,100079.09
2023-05-24T21:15:44.712Z,100072.13
2023-05-24T21:18:13.078Z,100071.28
2023-05-24T21:20:40.639Z,100070.34
2023-05-24T21:23:07.881Z,100053.84
2023-05-24T21:25:35.098Z,100069.47
2023-05-24T21:28:02.257Z,100064.31
2023-05-24T21:30:30.655Z,100066.94
2023-05-24T21:32:57.935Z,100055.66
2023-05-24T21:35:25.159Z,100066.06
2023-05-24T21:37:52.770Z,100066.06
2023-05-24T21:40:19.897Z,100062.56
2023-05-24T21:42:47.470Z,100055.59
2023-05-24T21:45:14.641Z,100041.69
2023-05-24T21:47:42.870Z,100038.22
2023-05-24T21:50:10.371Z,100039.06
2023-05-24T21:52:37.585Z,100024.25
2023-05-24T21:55:05.589Z,100013.88
2023-05-24T21:57:32.870Z,100011.19
2023-05-24T22:00:00.129Z,100019.09
2023-05-24T22:02:27.499Z,100005.22
2023-05-24T22:04:54.893Z,100002.72
2023-05-24T22:07:22.077Z,100006.16
2023-05-24T22:09:49.215Z,100015.81
2023-05-24T22:12:16.514Z,99989.78
2023-05-24T22:14:43.627Z,100009.66
2023-05-24T22:17:11.446Z,100013.91
2023-05-24T22:19:41.420Z,100020.03
2023-05-24T22:22:10.005Z,100019.19
2023-05-24T22:24:37.163Z,100014.00
2023-05-24T22:27:04.898Z,100018.47
2023-05-24T22:29:31.971Z,100021.97
2023-05-24T22:31:59.084Z,100024.56
2023-05-24T22:34:29.264Z,99971.56
2023-05-24T22:36:57.734Z,100032.47
2023-05-24T22:39:25.296Z,100041.25
2023-05-24T22:41:52.974Z,100035.16
2023-05-24T22:44:20.337Z,99975.22
2023-05-24T22:46:49.925Z,100030.19
2023-05-24T22:49:20.097Z,100022.50
2023-05-24T22:51:48.848Z,100037.34
2023-05-24T22:54:16.404Z,99992.25
2023-05-24T22:56:44.159Z,100041.63
2023-05-24T22:59:11.596Z,100043.34
2023-05-24T23:01:39.068Z,100051.22
2023-05-24T23:04:19.831Z,100037.31
2023-05-24T23:06:53.233Z,100046.88
2023-05-24T23:09:41.700Z,100049.59
2023-05-24T23:12:09.337Z,100054.88
2023-05-24T23:14:41.909Z,100051.44
2023-05-24T23:17:15.810Z,100049.72
2023-05-24T23:19:43.445Z,100037.56
2023-05-24T23:22:23.802Z,100023.72
2023-05-24T23:24:51.299Z,100052.56
2023-05-24T23:27:18.630Z,100050.84
2023-05-24T23:29:45.752Z,100055.22
2023-05-24T23:32:12.979Z,100045.59
2023-05-24T23:34:40.040Z,100048.31
2023-05-24T23:37:07.725Z,100045.72
2023-05-24T23:39:34.911Z,100051.06
2023-05-24T23:42:02.680Z,100051.13
2023-05-24T23:44:29.891Z,100030.28
2023-05-24T23:46:57.405Z,99992.81
2023-05-24T23:49:25.886Z,100026.69
2023-05-24T23:51:53.000Z,100043.25
2023-05-24T23:54:20.335Z,100053.78
2023-05-24T23:56:47.607Z,100046.75
2023-05-24T23:59:17.045Z,100040.72
